EGYP

Mount Pleasant Airport

Mount Pleasant, Falkland Islands
METAR EGYP 242350Z AUTO 33014KT 9999 // NCD 08/05 Q1011
Observed Flight Rules
Apr-24 @ 23:50 UTC (56 minutes ago) Visual Flight Rules
Wind Visibility Clouds
330° at 14 knots 10,000+ meters
  • Clear skies
Temperatures Readings
Current 8°C / 46°F
Dewpoint 5°C / 41°F
Humidity 82%
Altimeter 29.85" Hg
Pressure 1011 hPa
Elevation 74
METAR EGYP 242350Z AUTO 33014KT 9999 // NCD 08/05 Q1011
Observed Flight Rules
Apr-24 @ 23:50 UTC
(56 minutes ago)
VFR
Wind Visibility
330° at 14 knots 10,000+ meters
Clouds
  • Clear skies
Temperature Dewpoint
8°C / 46°F 5°C / 41°F
Humidity Altimeter Pressure
82% 29.85" Hg 1011 hPa